Lillian, Texas
Current Conditions -  °F | °C
As of 9:35 PM on Sunday 23 Nov 2014 (Local Time) from KFWS Reporting Station
Clear Clear  
Wind Chill: 52°   Ceiling: Unl
Heat Index: 52°   Visibility: 10mi
Dew Point: 38°   Wind: 15mph
Humidity: 59%   Direction: 330°NNW
Pressure: 29.8"   Gusts: 25mph
Location:  32.51°N, 97.19°W
Report Text: KFWS 240335Z AUTO 33013G22KT 10SM CLR 11/04 A2980 RMK AO2 T01120035
Loading
Personal Weather Stations






























Interactive Weather Map New forecast layout! Learn more

10-Day Weather Forecast

Advertisements
Track Severe Weather on mobile